Time;durP1;ratioP1;P1;durP2;ratioP2;P2;SDS_P1;SDS_P2;PMS_P1;PMS_P2;Temp;Humidity;BMP_temperature;BMP_pressure;BME280_temperature;BME280_humidity;BME280_pressure;Samples;Min_cycle;Max_cycle;Signal;HPM_P1;HPM_P2
2022/04/27 00:02:05;;;;;;;11.02;5.82;;;;;;;13.88;66.09;100237.03;4469684;32;20092;-69
2022/04/27 00:04:32;;;;;;;11.00;5.07;;;;;;;13.95;66.31;100226.28;4469641;32;20177;-69
2022/04/27 00:07:04;;;;;;;6.87;5.40;;;;;;;14.07;64.50;100233.91;4469485;32;20494;-69
2022/04/27 00:09:31;;;;;;;8.52;5.00;;;;;;;14.24;64.05;100238.69;4469447;32;20465;-69
2022/04/27 00:12:01;;;;;;;8.02;5.25;;;;;;;14.21;63.11;100242.31;4469256;32;20093;-69
2022/04/27 00:14:29;;;;;;;6.60;5.03;;;;;;;14.23;62.91;100245.78;4469422;32;20096;-69
2022/04/27 00:16:57;;;;;;;6.90;4.22;;;;;;;14.31;62.45;100234.94;4469403;32;20092;-69
2022/04/27 00:19:25;;;;;;;5.32;4.50;;;;;;;14.39;62.85;100234.75;4469491;32;20084;-69
2022/04/27 00:21:53;;;;;;;7.47;4.72;;;;;;;14.42;61.08;100232.88;4469303;32;20092;-69
2022/04/27 00:24:20;;;;;;;9.10;4.53;;;;;;;14.45;60.09;100227.47;4469283;32;20100;-70
2022/04/27 00:26:48;;;;;;;7.72;5.07;;;;;;;14.52;59.73;100229.06;4469275;32;20101;-69
2022/04/27 00:29:15;;;;;;;9.52;4.78;;;;;;;14.54;59.79;100239.59;4469239;32;20426;-70
2022/04/27 00:31:42;;;;;;;5.20;4.10;;;;;;;14.50;59.80;100232.66;4469136;32;20446;-69
2022/04/27 00:34:10;;;;;;;11.82;4.55;;;;;;;14.53;58.93;100229.94;4469365;32;20439;-69
2022/04/27 00:36:37;;;;;;;9.00;4.82;;;;;;;14.54;58.89;100229.00;4469053;32;20457;-69
2022/04/27 00:39:05;;;;;;;5.75;3.87;;;;;;;14.57;59.54;100231.56;4469116;32;20140;-69
2022/04/27 00:41:32;;;;;;;6.37;4.00;;;;;;;14.58;59.13;100222.69;4469017;32;20523;-69
2022/04/27 00:43:59;;;;;;;5.43;3.95;;;;;;;14.56;59.31;100235.12;4469065;32;20100;-69
2022/04/27 00:46:27;;;;;;;6.03;4.12;;;;;;;14.56;59.63;100227.19;4468993;32;20522;-69
2022/04/27 00:48:54;;;;;;;5.40;3.90;;;;;;;14.51;59.64;100231.75;4454475;32;20149;-69
2022/04/27 00:51:23;;;;;;;5.20;4.18;;;;;;;14.49;59.68;100242.38;4469210;32;20100;-70
2022/04/27 00:53:50;;;;;;;7.28;4.35;;;;;;;14.47;59.70;100244.19;4468919;32;20442;-69
2022/04/27 00:56:21;;;;;;;5.55;3.90;;;;;;;14.47;59.26;100241.53;4468768;32;20100;-69
2022/04/27 00:58:48;;;;;;;11.60;4.75;;;;;;;14.50;59.49;100238.84;4468946;32;20089;-69
2022/04/27 01:01:19;;;;;;;14.38;4.72;;;;;;;14.46;59.66;100241.59;4468821;32;20823;-70
2022/04/27 01:03:46;;;;;;;4.22;3.67;;;;;;;14.41;59.87;100244.37;4468697;32;20104;-69
2022/04/27 01:06:15;;;;;;;6.90;4.75;;;;;;;14.36;60.28;100246.31;4468761;32;20108;-70
2022/04/27 01:08:43;;;;;;;9.85;5.95;;;;;;;14.17;61.79;100250.37;4468607;32;20076;-69
2022/04/27 01:11:10;;;;;;;10.15;5.50;;;;;;;14.09;63.02;100246.16;4468621;32;20541;-69
2022/04/27 01:13:38;;;;;;;9.18;5.97;;;;;;;13.87;64.39;100243.25;4468657;32;20384;-69
2022/04/27 01:16:07;;;;;;;9.80;5.90;;;;;;;13.75;65.32;100248.91;4468777;32;20096;-69
2022/04/27 01:18:34;;;;;;;9.60;6.45;;;;;;;13.65;65.99;100249.19;4468858;32;20088;-69
2022/04/27 01:21:03;;;;;;;10.93;6.40;;;;;;;13.51;66.70;100246.91;4470255;32;20556;-70
2022/04/27 01:23:36;;;;;;;9.95;6.62;;;;;;;13.36;67.45;100250.84;4471099;32;20128;-69
2022/04/27 01:26:07;;;;;;;9.07;6.50;;;;;;;13.23;70.00;100254.66;4471126;32;20104;-70
2022/04/27 01:28:37;;;;;;;10.82;6.60;;;;;;;13.08;70.83;100259.41;4471056;32;20088;-69
2022/04/27 01:31:10;;;;;;;8.13;6.32;;;;;;;12.98;72.52;100272.88;4470793;32;20092;-69
2022/04/27 01:33:38;;;;;;;10.43;6.82;;;;;;;12.95;73.46;100280.91;4470813;32;20114;-69
2022/04/27 01:36:07;;;;;;;10.80;7.12;;;;;;;12.79;76.12;100285.66;4470649;32;20092;-69
2022/04/27 01:38:36;;;;;;;12.60;7.12;;;;;;;12.72;77.26;100297.25;4470986;32;20488;-69
2022/04/27 01:41:04;;;;;;;17.83;7.53;;;;;;;12.61;77.25;100308.94;4470769;32;20088;-69
2022/04/27 01:43:31;;;;;;;10.07;6.90;;;;;;;12.59;77.86;100309.91;4470802;32;20172;-70
2022/04/27 01:45:59;;;;;;;12.55;7.20;;;;;;;12.56;78.05;100320.53;4470743;32;20096;-69
2022/04/27 01:48:27;;;;;;;10.48;6.43;;;;;;;12.53;80.54;100312.66;4470651;32;20141;-69
2022/04/27 01:50:54;;;;;;;11.93;7.60;;;;;;;12.54;80.55;100306.47;4470600;32;20104;-69
2022/04/27 01:56:08;;;;;;;13.97;8.37;;;;;;;12.32;84.40;100300.75;4470671;32;20477;-69
2022/04/27 01:58:36;;;;;;;18.85;8.10;;;;;;;12.19;85.65;100298.37;4470744;32;20526;-69
2022/04/27 02:01:03;;;;;;;13.85;7.62;;;;;;;12.16;86.15;100295.78;4470718;32;20448;-69
2022/04/27 02:03:31;;;;;;;13.07;8.25;;;;;;;12.07;86.64;100288.03;4470561;32;20455;-69
2022/04/27 02:05:59;;;;;;;17.58;8.52;;;;;;;11.99;88.82;100283.81;4470547;32;20153;-69
2022/04/27 02:08:26;;;;;;;12.75;8.45;;;;;;;11.96;88.14;100285.59;4470841;32;20076;-69
2022/04/27 02:10:54;;;;;;;11.85;8.10;;;;;;;12.03;89.48;100285.50;4470505;32;20118;-69
2022/04/27 02:13:22;;;;;;;14.23;8.60;;;;;;;11.95;89.48;100286.50;4470524;32;20158;-69
2022/04/27 02:15:50;;;;;;;13.57;8.48;;;;;;;11.97;90.22;100275.91;4470624;32;20549;-70
2022/04/27 02:18:19;;;;;;;14.48;8.82;;;;;;;11.91;90.86;100273.41;4456249;32;20429;-69
2022/04/27 02:20:46;;;;;;;12.23;9.00;;;;;;;11.88;92.64;100266.41;4470420;32;20754;-69
2022/04/27 02:23:13;;;;;;;12.82;8.60;;;;;;;11.91;92.46;100270.78;4455864;32;20545;-69
2022/04/27 02:25:41;;;;;;;12.73;8.40;;;;;;;11.85;93.77;100261.19;4470376;32;20558;-69
2022/04/27 02:28:08;;;;;;;12.73;8.75;;;;;;;11.81;95.04;100258.59;4470542;32;20081;-69
2022/04/27 02:30:35;;;;;;;13.77;8.70;;;;;;;11.81;95.07;100254.19;4470354;32;20096;-69
2022/04/27 02:33:02;;;;;;;13.10;9.35;;;;;;;11.81;96.08;100258.59;4470403;32;20089;-69
2022/04/27 02:35:30;;;;;;;15.50;8.90;;;;;;;11.82;95.20;100261.19;4470520;32;20428;-69
2022/04/27 02:37:57;;;;;;;14.02;9.35;;;;;;;11.79;95.58;100250.69;4470589;32;20501;-69
2022/04/27 02:40:24;;;;;;;14.13;8.68;;;;;;;11.83;95.25;100255.00;4470532;32;20500;-70
2022/04/27 02:42:52;;;;;;;15.23;9.13;;;;;;;11.88;92.89;100261.13;4470571;32;20119;-69
2022/04/27 02:45:20;;;;;;;13.93;9.45;;;;;;;11.88;93.52;100257.63;4470302;32;20159;-69
2022/04/27 02:47:47;;;;;;;20.08;9.23;;;;;;;11.87;94.46;100267.31;4470279;32;20542;-69
2022/04/27 02:53:00;;;;;;;14.48;9.35;;;;;;;11.85;95.57;100253.25;4470641;32;20417;-70
2022/04/27 02:55:28;;;;;;;15.43;9.75;;;;;;;11.84;96.42;100263.87;4470296;32;20156;-69
2022/04/27 02:57:56;;;;;;;12.77;8.85;;;;;;;11.80;96.57;100260.38;4470465;32;20440;-69
2022/04/27 03:00:23;;;;;;;15.00;9.90;;;;;;;11.85;97.01;100268.25;4470258;32;20122;-70
2022/04/27 03:02:51;;;;;;;13.98;9.40;;;;;;;11.82;96.91;100270.91;4470577;32;20136;-69
2022/04/27 03:05:19;;;;;;;17.33;9.93;;;;;;;11.81;97.85;100270.03;4470313;32;20407;-69
2022/04/27 03:07:47;;;;;;;13.18;9.18;;;;;;;11.82;97.96;100276.19;4470046;32;20103;-69
2022/04/27 03:10:14;;;;;;;14.50;9.82;;;;;;;11.80;98.46;100277.97;4470225;32;20121;-69
2022/04/27 03:12:41;;;;;;;15.20;9.13;;;;;;;11.78;99.06;100275.38;4470056;32;20097;-69
2022/04/27 03:15:09;;;;;;;14.73;9.02;;;;;;;11.83;98.68;100281.41;4470330;32;20088;-70
2022/04/27 03:17:36;;;;;;;12.98;8.93;;;;;;;11.85;97.68;100278.78;4470351;32;20519;-70
2022/04/27 03:20:04;;;;;;;17.77;9.60;;;;;;;11.82;97.76;100279.69;4470218;32;20496;-69
2022/04/27 03:22:32;;;;;;;13.85;8.65;;;;;;;11.81;99.57;100285.00;4470184;32;20490;-70
2022/04/27 03:25:01;;;;;;;13.38;8.35;;;;;;;11.86;99.01;100284.03;4470207;32;20104;-69
2022/04/27 03:27:29;;;;;;;16.08;8.32;;;;;;;11.95;97.96;100286.50;4470193;32;20187;-70
2022/04/27 03:29:56;;;;;;;16.37;8.75;;;;;;;12.11;95.97;100299.41;4470007;32;20530;-70
2022/04/27 03:32:24;;;;;;;17.55;9.05;;;;;;;12.24;93.68;100300.91;4455496;32;20555;-70
2022/04/27 03:34:52;;;;;;;20.20;10.82;;;;;;;12.31;92.63;100294.59;4470070;32;20100;-70
2022/04/27 03:37:22;;;;;;;15.73;10.45;;;;;;;12.38;90.47;100301.50;4469747;32;20527;-70
2022/04/27 03:39:50;;;;;;;16.70;10.57;;;;;;;12.32;90.99;100300.75;4470049;32;20189;-70
2022/04/27 03:42:17;;;;;;;15.40;9.35;;;;;;;12.33;89.61;100297.22;4469336;32;20453;-70
2022/04/27 03:44:46;;;;;;;14.18;10.13;;;;;;;12.30;90.29;100298.16;4469980;32;20157;-70
2022/04/27 03:47:13;;;;;;;22.67;9.43;;;;;;;12.27;92.69;100303.50;4469827;32;20096;-70
2022/04/27 03:49:40;;;;;;;16.37;10.52;;;;;;;12.15;93.84;100301.09;4469850;32;20096;-69
2022/04/27 03:52:08;;;;;;;16.17;9.95;;;;;;;12.08;95.82;100296.81;4469733;32;20167;-70
2022/04/27 03:54:35;;;;;;;16.45;9.02;;;;;;;12.03;96.76;100302.22;4469776;32;20454;-69
2022/04/27 03:57:03;;;;;;;19.80;9.32;;;;;;;12.01;95.31;100295.22;4462924;32;20416;-70
2022/04/27 03:59:31;;;;;;;13.52;8.32;;;;;;;12.03;94.16;100303.97;4460898;32;20104;-70
2022/04/27 04:01:58;;;;;;;18.83;9.20;;;;;;;12.07;93.46;100303.03;4454255;32;20109;-70
2022/04/27 04:04:26;;;;;;;14.52;8.93;;;;;;;12.11;93.39;100305.56;4467987;32;20100;-70
2022/04/27 04:06:54;;;;;;;12.35;8.90;;;;;;;12.12;93.24;100314.34;4469311;32;20787;-70
2022/04/27 04:09:21;;;;;;;17.92;8.90;;;;;;;12.09;92.94;100317.94;4469651;32;20104;-70
2022/04/27 04:11:49;;;;;;;13.88;8.13;;;;;;;12.10;92.72;100322.31;4469460;32;20494;-70
2022/04/27 04:14:18;;;;;;;11.90;8.40;;;;;;;12.17;92.76;100318.66;4469556;32;20100;-70
2022/04/27 04:16:46;;;;;;;15.57;9.88;;;;;;;12.28;91.72;100328.16;4454491;32;20752;-70
2022/04/27 04:19:15;;;;;;;38.20;17.98;;;;;;;12.34;91.70;100328.03;4453685;32;20474;-70
2022/04/27 04:21:42;;;;;;;46.40;19.30;;;;;;;12.32;91.21;100332.47;4453635;32;20844;-70
2022/04/27 04:24:11;;;;;;;48.15;21.27;;;;;;;12.30;92.33;100332.50;4453913;32;20563;-70
2022/04/27 04:29:27;;;;;;;13.90;8.85;;;;;;;12.28;90.87;100344.88;4453243;32;20577;-70
2022/04/27 04:31:54;;;;;;;13.15;8.98;;;;;;;12.26;91.20;100349.31;4453348;32;20154;-70
2022/04/27 04:34:21;;;;;;;17.98;9.15;;;;;;;12.28;90.73;100344.00;4453551;32;20126;-70
2022/04/27 04:36:48;;;;;;;13.32;9.13;;;;;;;12.36;89.75;100353.50;4453835;32;20096;-70
2022/04/27 04:39:16;;;;;;;19.62;10.60;;;;;;;12.38;90.49;100346.44;4452733;32;20085;-70
2022/04/27 04:41:45;;;;;;;33.08;14.80;;;;;;;12.33;90.47;100343.03;4454294;32;20773;-70
2022/04/27 04:44:12;;;;;;;38.83;16.98;;;;;;;12.40;90.63;100349.91;4454229;32;20168;-70
2022/04/27 04:46:42;;;;;;;32.67;15.68;;;;;;;12.41;89.90;100354.28;4454219;32;20106;-70
2022/04/27 04:49:11;;;;;;;43.08;18.05;;;;;;;12.43;88.53;100349.84;4454202;32;20085;-70
2022/04/27 04:51:39;;;;;;;28.23;12.98;;;;;;;12.42;90.11;100355.16;4458487;32;20126;-70
2022/04/27 04:54:07;;;;;;;23.33;10.50;;;;;;;12.49;89.42;100355.91;4469767;32;20151;-70
2022/04/27 04:56:34;;;;;;;14.10;9.02;;;;;;;12.49;89.27;100355.91;4471728;32;20134;-70
2022/04/27 04:59:01;;;;;;;15.95;9.32;;;;;;;12.47;90.61;100363.84;4471691;32;20085;-70
2022/04/27 05:01:29;;;;;;;24.05;12.35;;;;;;;12.50;89.61;100361.16;4471790;32;20092;-70
2022/04/27 05:03:57;;;;;;;35.42;15.18;;;;;;;12.47;89.05;100363.00;4471939;32;20121;-70
2022/04/27 05:06:32;;;;;;;19.62;10.90;;;;;;;12.39;91.17;100364.00;4471796;32;20461;-70
2022/04/27 05:08:59;;;;;;;43.83;19.12;;;;;;;12.48;91.33;100373.56;4471724;32;20188;-70
2022/04/27 05:11:26;;;;;;;44.50;19.75;;;;;;;12.56;90.25;100370.75;4471717;32;20150;-70
2022/04/27 05:13:54;;;;;;;21.40;10.65;;;;;;;12.64;90.13;100379.37;4471521;32;20143;-70
2022/04/27 05:16:26;;;;;;;16.62;10.02;;;;;;;12.83;90.27;100380.75;4471611;32;20115;-70
2022/04/27 05:18:53;;;;;;;12.85;8.85;;;;;;;12.96;88.82;100381.34;4471663;32;20171;-70
2022/04/27 05:21:21;;;;;;;13.10;8.07;;;;;;;13.18;88.42;100386.16;4471320;32;20134;-70
2022/04/27 05:23:49;;;;;;;11.50;8.25;;;;;;;13.27;89.46;100386.00;4471646;32;20093;-70
2022/04/27 05:26:16;;;;;;;11.32;8.18;;;;;;;13.44;86.41;100391.78;4471710;32;20141;-70
2022/04/27 05:34:18;;;;;;;17.20;8.32;;;;;;;14.05;81.39;100397.31;4471453;32;20088;-70
2022/04/27 05:36:46;;;;;;;13.98;9.07;;;;;;;14.20;80.49;100399.56;4471508;32;20097;-70
2022/04/27 05:39:13;;;;;;;11.15;8.30;;;;;;;14.13;80.79;100387.38;4470935;32;20191;-70
2022/04/27 05:41:42;;;;;;;17.17;8.85;;;;;;;14.09;81.69;100389.25;4470859;32;20185;-70
2022/04/27 05:44:12;;;;;;;12.43;8.70;;;;;;;14.14;84.11;100390.94;4470710;32;20122;-70
2022/04/27 05:46:39;;;;;;;12.20;7.80;;;;;;;14.21;82.07;100396.03;4470486;32;20084;-70
2022/04/27 05:49:07;;;;;;;17.90;8.30;;;;;;;14.44;80.85;100394.53;4471126;32;20114;-70
2022/04/27 05:51:36;;;;;;;10.57;7.35;;;;;;;14.39;80.40;100396.44;4466623;32;20460;-70
2022/04/27 05:54:03;;;;;;;14.93;8.40;;;;;;;14.69;78.70;100395.59;4454615;32;20436;-70
2022/04/27 05:56:33;;;;;;;17.90;8.15;;;;;;;14.95;76.38;100409.91;4454571;32;20138;-70
2022/04/27 05:59:01;;;;;;;13.10;8.68;;;;;;;14.99;76.91;100403.59;4454731;32;20424;-70
2022/04/27 06:01:31;;;;;;;10.77;7.47;;;;;;;15.05;77.57;100403.37;4454989;32;20108;-70
2022/04/27 06:03:59;;;;;;;12.30;7.87;;;;;;;15.11;77.60;100410.31;4454778;32;20753;-70
2022/04/27 06:06:27;;;;;;;14.80;8.02;;;;;;;15.33;77.26;100407.88;4454697;32;20119;-70
2022/04/27 06:08:54;;;;;;;12.90;7.43;;;;;;;15.42;75.34;100410.25;4454705;32;20123;-71
2022/04/27 06:11:23;;;;;;;11.85;7.25;;;;;;;15.63;73.51;100412.22;4454670;32;20573;-71
2022/04/27 06:13:52;;;;;;;11.57;7.12;;;;;;;15.98;71.82;100408.44;4454949;32;20089;-69
2022/04/27 06:16:24;;;;;;;9.32;6.95;;;;;;;15.95;69.58;100415.63;4454725;32;20089;-68
2022/04/27 06:18:53;;;;;;;9.85;7.30;;;;;;;15.96;70.99;100414.69;4454450;32;20451;-68
2022/04/27 06:21:22;;;;;;;10.82;8.27;;;;;;;16.14;69.67;100418.53;4454777;32;20096;-67
2022/04/27 06:23:49;;;;;;;11.75;8.23;;;;;;;15.94;70.89;100419.22;4454681;32;20097;-69
2022/04/27 06:26:18;;;;;;;13.98;9.38;;;;;;;16.23;67.65;100416.44;4454364;32;20621;-68
2022/04/27 06:28:45;;;;;;;14.77;8.00;;;;;;;16.24;69.77;100423.47;4454612;32;20092;-68
2022/04/27 06:31:12;;;;;;;14.40;8.32;;;;;;;16.84;66.35;100420.50;4454607;32;20100;-69
2022/04/27 06:33:41;;;;;;;12.45;7.28;;;;;;;16.91;64.40;100430.00;4452647;32;20103;-68
2022/04/27 06:36:08;;;;;;;10.93;7.65;;;;;;;16.93;63.32;100437.00;4454568;32;20092;-67
2022/04/27 06:38:35;;;;;;;9.82;7.53;;;;;;;16.83;65.71;100430.28;4454524;32;20096;-68
2022/04/27 06:41:06;;;;;;;15.05;7.82;;;;;;;16.98;61.99;100436.81;4454549;32;20384;-68
2022/04/27 06:43:42;;;;;;;10.43;7.15;;;;;;;16.97;61.42;100432.44;4454780;32;20123;-69
2022/04/27 06:46:18;;;;;;;9.85;6.75;;;;;;;17.08;61.79;100440.87;4454630;32;20168;-68
2022/04/27 06:49:00;;;;;;;10.15;6.70;;;;;;;17.26;62.00;100449.09;4454769;32;20104;-69
2022/04/27 06:51:42;;;;;;;10.30;7.65;;;;;;;16.90;60.73;100446.91;4459904;32;20157;-68
2022/04/27 06:54:16;;;;;;;10.27;6.53;;;;;;;16.97;62.29;100451.06;4464087;32;20108;-68
2022/04/27 06:56:57;;;;;;;16.27;7.65;;;;;;;17.03;62.04;100457.94;4470776;32;20448;-67
2022/04/27 06:59:25;;;;;;;9.80;6.82;;;;;;;17.27;59.96;100462.34;4471018;32;20112;-68
2022/04/27 07:01:54;;;;;;;9.65;6.90;;;;;;;17.64;60.05;100461.78;4470611;32;20883;-68
2022/04/27 07:04:22;;;;;;;10.02;6.03;;;;;;;17.94;58.69;100464.16;4470661;32;20248;-68
2022/04/27 07:06:50;;;;;;;13.77;7.32;;;;;;;17.75;56.94;100458.69;4471010;32;20152;-70
2022/04/27 07:09:17;;;;;;;9.30;7.00;;;;;;;17.72;62.08;100463.28;4470827;32;20104;-70
2022/04/27 07:11:45;;;;;;;9.25;6.20;;;;;;;17.72;57.91;100450.81;4468883;32;20132;-70
2022/04/27 07:14:15;;;;;;;12.35;6.85;;;;;;;17.73;58.59;100459.66;4470669;32;20131;-68
2022/04/27 07:16:43;;;;;;;11.55;8.20;;;;;;;17.73;61.33;100457.87;4470263;32;20123;-68
2022/04/27 07:19:12;;;;;;;10.60;7.68;;;;;;;17.86;59.82;100464.47;4468930;32;20101;-68
2022/04/27 07:21:40;;;;;;;13.15;7.53;;;;;;;17.97;57.22;100463.19;4469946;32;20160;-68
2022/04/27 07:24:07;;;;;;;12.20;7.50;;;;;;;17.75;59.10;100468.50;4470020;32;20165;-68
2022/04/27 07:26:35;;;;;;;10.57;7.57;;;;;;;17.72;57.41;100457.94;4470002;32;20201;-68
2022/04/27 07:29:02;;;;;;;10.57;7.07;;;;;;;17.46;59.94;100466.97;4469000;32;20112;-67
2022/04/27 07:31:29;;;;;;;13.38;7.55;;;;;;;17.47;58.87;100466.03;4461317;32;20104;-68
2022/04/27 07:33:56;;;;;;;12.00;6.75;;;;;;;17.55;58.88;100478.13;4454486;32;20089;-68
2022/04/27 07:36:24;;;;;;;14.15;7.62;;;;;;;17.49;58.45;100474.81;4454793;32;20152;-69
2022/04/27 07:38:56;;;;;;;15.48;8.65;;;;;;;17.65;57.93;100474.16;4455114;32;20153;-69
2022/04/27 07:41:24;;;;;;;11.12;8.60;;;;;;;17.62;59.60;100476.94;4454632;32;20614;-68
2022/04/27 07:43:51;;;;;;;14.80;8.80;;;;;;;17.56;61.55;100481.66;4454853;32;20108;-68
2022/04/27 07:46:18;;;;;;;14.87;9.52;;;;;;;17.38;64.31;100480.56;4454838;32;20084;-68
2022/04/27 07:48:46;;;;;;;11.50;9.15;;;;;;;17.40;62.62;100484.91;4453189;32;20708;-68
2022/04/27 07:51:14;;;;;;;16.08;11.32;;;;;;;17.60;62.10;100480.63;4456348;32;20127;-69
2022/04/27 07:53:41;;;;;;;12.98;8.68;;;;;;;17.42;61.79;100488.41;4465091;32;20130;-69
2022/04/27 07:56:09;;;;;;;14.32;8.63;;;;;;;17.39;60.76;100485.84;4470247;32;20192;-69
2022/04/27 07:58:37;;;;;;;17.25;8.85;;;;;;;17.36;61.98;100488.63;4469946;32;20107;-69
2022/04/27 08:01:09;;;;;;;12.55;9.73;;;;;;;17.28;62.35;100482.75;4469903;32;20096;-68
2022/04/27 08:03:36;;;;;;;10.40;8.00;;;;;;;17.10;63.60;100488.72;4469021;32;20092;-68
2022/04/27 08:06:04;;;;;;;12.70;9.75;;;;;;;17.12;61.32;100485.09;4468621;32;20113;-68
2022/04/27 08:08:32;;;;;;;14.45;9.75;;;;;;;17.03;62.93;100490.78;4468316;32;20097;-68
2022/04/27 08:10:59;;;;;;;13.35;9.10;;;;;;;17.30;63.00;100486.19;4468381;32;20127;-68
2022/04/27 08:13:26;;;;;;;14.70;8.00;;;;;;;17.16;61.32;100484.06;4468855;32;20173;-68
2022/04/27 08:15:54;;;;;;;16.12;8.13;;;;;;;17.71;61.73;100482.88;4469003;32;20703;-68
2022/04/27 08:18:22;;;;;;;11.48;7.95;;;;;;;18.36;58.15;100487.31;4468788;32;20741;-68
2022/04/27 08:23:40;;;;;;;14.73;7.50;;;;;;;18.82;56.04;100498.69;4468746;32;20898;-68
2022/04/27 08:26:08;;;;;;;15.57;7.30;;;;;;;18.93;53.22;100496.41;4468232;32;20725;-68
2022/04/27 08:28:39;;;;;;;10.93;7.37;;;;;;;18.94;54.90;100498.16;4468390;32;20725;-69
2022/04/27 08:31:08;;;;;;;12.23;7.15;;;;;;;18.49;52.30;100503.69;4470583;32;20089;-68
2022/04/27 08:33:35;;;;;;;9.52;7.80;;;;;;;18.49;54.90;100503.69;4470705;32;20509;-68
2022/04/27 08:36:03;;;;;;;12.43;7.20;;;;;;;18.66;55.29;100508.25;4471731;32;20518;-68
2022/04/27 08:38:51;;;;;;;10.23;7.40;;;;;;;18.92;53.54;100507.19;4471711;32;20106;-68
2022/04/27 08:41:19;;;;;;;10.55;7.70;;;;;;;18.69;57.07;100514.34;4471723;32;20167;-69
2022/04/27 08:43:46;;;;;;;11.48;8.50;;;;;;;18.81;51.95;100513.00;4471870;32;20966;-68
2022/04/27 08:46:17;;;;;;;15.57;8.07;;;;;;;18.45;52.95;100513.62;4457428;32;20428;-68
2022/04/27 08:48:48;;;;;;;11.93;8.93;;;;;;;18.10;55.49;100513.28;4471660;32;20151;-68
2022/04/27 08:51:16;;;;;;;10.63;8.52;;;;;;;17.67;54.69;100508.78;4470019;32;20485;-69
2022/04/27 08:53:44;;;;;;;14.23;8.35;;;;;;;17.56;53.74;100503.88;4454286;32;20451;-70
2022/04/27 08:56:13;;;;;;;11.35;8.05;;;;;;;17.63;55.62;100502.69;4455887;32;20085;-69
2022/04/27 08:58:41;;;;;;;10.35;8.00;;;;;;;18.38;53.32;100494.31;4456021;32;20118;-70
2022/04/27 09:01:10;;;;;;;10.10;8.10;;;;;;;18.91;52.38;100494.78;4455957;32;20158;-70
2022/04/27 09:03:40;;;;;;;10.00;8.13;;;;;;;18.84;51.73;100492.38;4455662;32;20121;-70
2022/04/27 09:06:11;;;;;;;14.80;7.32;;;;;;;18.73;52.80;100488.41;4456124;32;20065;-70
2022/04/27 09:08:44;;;;;;;11.90;7.18;;;;;;;19.35;54.35;100495.41;4456125;32;20089;-70
2022/04/27 09:11:21;;;;;;;11.80;7.32;;;;;;;19.45;54.26;100498.53;4455879;32;20092;-70
2022/04/27 09:13:52;;;;;;;;;;;;;;;19.26;52.71;100499.38;4456066;32;20572;-70
2022/04/27 09:16:22;;;;;;;9.32;7.20;;;;;;;18.96;51.37;100496.28;4456275;32;19973;-70
2022/04/27 09:22:00;;;;;;;12.95;7.75;;;;;;;18.96;53.98;100504.28;4455500;32;20084;-70
2022/04/27 09:24:45;;;;;;;9.27;7.47;;;;;;;18.94;52.11;100508.84;4455715;32;20122;-70
2022/04/27 09:27:16;;;;;;;10.43;7.55;;;;;;;19.18;50.54;100501.50;4455912;32;20107;-70
2022/04/27 09:29:43;;;;;;;9.93;6.87;;;;;;;19.48;50.33;100501.06;4455907;32;20092;-69
2022/04/27 09:32:16;;;;;;;9.07;6.95;;;;;;;19.56;51.16;100494.37;4455749;32;20124;-72
2022/04/27 09:34:48;;;;;;;11.00;7.20;;;;;;;19.61;50.70;100490.63;4456158;32;20527;-72
2022/04/27 09:37:21;;;;;;;12.98;7.72;;;;;;;19.78;50.76;100488.91;4454486;32;20076;-72
2022/04/27 09:40:11;;;;;;;10.98;7.03;;;;;;;19.86;48.32;100495.69;4455008;32;20097;-72
2022/04/27 09:42:45;;;;;;;11.45;6.87;;;;;;;19.96;50.99;100492.50;4455488;32;20077;-72
2022/04/27 09:45:20;;;;;;;10.35;7.45;;;;;;;19.85;50.62;100493.97;4455222;32;20089;-72
2022/04/27 09:47:50;;;;;;;16.33;7.12;;;;;;;19.73;51.12;100500.78;4455051;32;20513;-72
2022/04/27 09:50:17;;;;;;;8.43;6.97;;;;;;;19.41;50.93;100495.13;4455312;32;20184;-72
2022/04/27 09:52:45;;;;;;;7.82;6.53;;;;;;;19.50;50.42;100483.97;4466531;32;20096;-72
2022/04/27 09:55:13;;;;;;;13.45;7.20;;;;;;;19.64;50.14;100490.53;4471013;32;20164;-72
2022/04/27 09:57:54;;;;;;;8.18;6.70;;;;;;;19.26;52.87;100495.84;4471459;32;20072;-71
2022/04/27 10:00:22;;;;;;;10.90;7.05;;;;;;;18.90;51.83;100498.34;4471530;32;20080;-72
2022/04/27 10:02:51;;;;;;;12.63;7.93;;;;;;;18.37;52.56;100491.69;4471440;32;20101;-72
2022/04/27 10:05:21;;;;;;;12.02;8.23;;;;;;;18.53;53.75;100498.13;4471394;32;20172;-71
2022/04/27 10:07:50;;;;;;;13.55;8.07;;;;;;;18.31;55.25;100500.84;4456936;32;20152;-72
2022/04/27 10:10:18;;;;;;;14.18;8.93;;;;;;;18.11;56.60;100504.34;4471150;32;20456;-71
2022/04/27 10:12:46;;;;;;;13.40;8.65;;;;;;;17.75;56.11;100505.81;4471263;32;20248;-71
2022/04/27 10:15:13;;;;;;;14.85;8.68;;;;;;;17.44;57.73;100509.66;4471156;32;20096;-71
2022/04/27 10:17:41;;;;;;;12.73;8.32;;;;;;;17.19;58.81;100509.69;4470671;32;20160;-72
2022/04/27 10:20:28;;;;;;;12.95;8.55;;;;;;;16.86;61.20;100504.69;4471342;32;20088;-72
2022/04/27 10:23:21;;;;;;;9.30;7.62;;;;;;;16.72;60.29;100507.81;4470715;32;20163;-72
2022/04/27 10:26:10;;;;;;;12.05;7.87;;;;;;;16.63;61.27;100508.13;4466102;32;20165;-71
2022/04/27 10:28:50;;;;;;;12.23;8.88;;;;;;;16.49;63.28;100508.59;4463487;32;20100;-71
2022/04/27 10:31:48;;;;;;;22.20;10.18;;;;;;;16.53;63.00;100517.34;4469382;32;20088;-71
2022/04/27 10:34:20;;;;;;;15.45;10.68;;;;;;;16.10;65.01;100510.81;4469767;32;20811;-71
2022/04/27 10:36:55;;;;;;;14.65;9.90;;;;;;;15.82;66.32;100508.16;4469656;32;20487;-70
2022/04/27 10:39:30;;;;;;;19.92;11.20;;;;;;;15.80;67.35;100520.62;4469493;32;20127;-72
2022/04/27 10:42:03;;;;;;;21.58;11.23;;;;;;;15.63;68.49;100512.28;4467940;32;20126;-70
2022/04/27 10:44:58;;;;;;;14.85;9.68;;;;;;;15.59;70.50;100506.19;4460770;32;20100;-70
2022/04/27 10:47:34;;;;;;;15.75;10.82;;;;;;;15.90;68.78;100506.16;4465373;32;20801;-69
2022/04/27 10:50:10;;;;;;;;;;;;;;;16.01;68.22;100511.13;4470845;32;20084;-69
2022/04/27 10:52:55;;;;;;;15.98;11.55;;;;;;;15.84;70.02;100508.13;4462198;32;20790;-69
2022/04/27 10:55:34;;;;;;;14.35;11.07;;;;;;;15.74;70.56;100521.69;4443939;32;20128;-69
2022/04/27 10:58:18;;;;;;;17.67;12.30;;;;;;;15.72;71.22;100520.88;4453610;32;20092;-70
2022/04/27 11:00:57;;;;;;;14.68;11.35;;;;;;;15.71;71.92;100523.56;4454857;32;20069;-69
2022/04/27 11:03:26;;;;;;;17.73;12.37;;;;;;;15.70;70.66;100519.19;4454494;32;20132;-69
2022/04/27 11:06:02;;;;;;;20.05;12.85;;;;;;;15.53;72.68;100517.84;4454043;32;20101;-69
2022/04/27 11:08:52;;;;;;;16.83;12.43;;;;;;;15.40;73.05;100520.91;4453312;32;20428;-69
2022/04/27 11:11:24;;;;;;;18.55;13.15;;;;;;;15.48;73.34;100516.28;4454015;32;20151;-69
2022/04/27 11:13:51;;;;;;;18.58;12.45;;;;;;;15.43;72.98;100519.03;4453817;32;20446;-69
2022/04/27 11:16:18;;;;;;;19.00;12.88;;;;;;;15.26;74.62;100524.87;4453905;32;20445;-69
2022/04/27 11:18:50;;;;;;;17.48;13.50;;;;;;;15.07;75.23;100521.84;4453537;32;20155;-69
2022/04/27 11:21:18;;;;;;;17.87;12.60;;;;;;;14.93;76.30;100518.72;4454181;32;20643;-69
2022/04/27 11:23:46;;;;;;;19.17;12.68;;;;;;;14.79;76.42;100529.69;4453940;32;20135;-69
2022/04/27 11:26:14;;;;;;;19.37;12.85;;;;;;;14.63;77.64;100519.53;4454107;32;20531;-69
2022/04/27 11:28:46;;;;;;;19.25;12.70;;;;;;;14.35;79.63;100529.06;4454057;32;20097;-68
2022/04/27 11:31:14;;;;;;;19.70;12.15;;;;;;;14.50;78.99;100516.34;4454050;32;20630;-69
2022/04/27 11:33:42;;;;;;;18.23;12.20;;;;;;;14.31;80.70;100523.84;4458878;32;20109;-69
2022/04/27 11:36:23;;;;;;;17.25;12.55;;;;;;;14.57;79.84;100526.75;4461748;32;20101;-69
2022/04/27 11:38:52;;;;;;;15.30;11.75;;;;;;;14.49;79.94;100526.06;4459972;32;20171;-68
2022/04/27 11:41:20;;;;;;;18.20;13.15;;;;;;;14.35;80.17;100526.41;4461679;32;20092;-68
2022/04/27 11:43:49;;;;;;;19.70;13.27;;;;;;;14.04;80.98;100533.38;4460346;32;20451;-68
2022/04/27 11:46:18;;;;;;;19.05;11.93;;;;;;;14.06;82.01;100531.53;4461712;32;20181;-68
2022/04/27 11:48:52;;;;;;;21.10;13.90;;;;;;;14.12;81.42;100534.03;4453994;32;20169;-69